• Join FlightAware (Why Join?)
  • Login
  • US Flag 
06:43PM EDT


 

Airport Tracker/Info


-or-


 

Live Flight TrackerFlight Track Log ✈ PCM8653 ✈ 22-Dec-2012 ✈ KSMF - KRDD

Flight Track Log - Related Links

Times and Time Zones

All times are in EST time to prevent confusion due to time zone crossing. See the PCM8653 flight status page for this flight to view local times or setup timezone preferences in your user account.

Time Position Orientation Groundspeed Altitude Reporting Facility
EST Latitude Longitude Course Direction KTS MPH feet Rate Location/Type
01:00PM 38.7000 -121.6167 339° North 102 117 1,400  Level Northern Cal TRACON
01:01PM 38.7167 -121.6333 322° Northwest 115 132 2,600 1,140 Climbing Northern Cal TRACON
01:02PM 38.7422 -121.6547 327° Northwest 112 129 3,600 1,200 Climbing Oakland Center
01:03PM 38.7717 -121.6650 345° North 112 129 4,900 1,140 Climbing Oakland Center
01:04PM 38.8014 -121.6767 343° North 111 128 6,000 540 Climbing Oakland Center
01:05PM 38.9031 -121.6766 339° North  Level FlightAware Approximate
01:05PM 38.8408 -121.6961 339° North 159 183 6,000  Level Oakland Center
01:06PM 38.8869 -121.7125 345° North 171 197 6,000  Level Oakland Center
01:07PM 38.9325 -121.7325 341° North 172 198 6,000  Level Oakland Center
01:08PM 38.9769 -121.7514 342° North 170 196 6,000  Level Oakland Center
01:09PM 39.0217 -121.7703 342° North 169 194 6,000  Level Oakland Center
01:10PM 39.0744 -121.7933 341° North 167 192 6,000  Level Oakland Center
01:11PM 39.1181 -121.8108 343° North 165 190 6,000  Level Oakland Center
01:12PM 39.1617 -121.8306 341° North 165 190 6,000 -60 Level Oakland Center
01:13PM 39.2058 -121.8489 342° North 166 191 5,900 -60 Descending Oakland Center
01:15PM 39.2917 -121.8836 343° North 161 185 5,900  Level Oakland Center
01:16PM 39.3347 -121.9033 340° North 162 186 5,900  Level Oakland Center
01:17PM 39.3783 -121.9222 341° North 164 189 5,900  Level Oakland Center
01:18PM 39.4214 -121.9403 342° North 163 188 5,900  Level Oakland Center
01:19PM 39.4642 -121.9592 341° North 163 188 5,900  Level Oakland Center
01:20PM 39.5097 -121.9803 340° North 163 188 5,900 -120 Level Oakland Center
01:21PM 39.5533 -122.0017 339° North 166 191 5,700 -360 Descending Oakland Center
01:22PM 39.6003 -122.0208 343° North 172 198 5,200 -480 Descending Oakland Center
01:23PM 39.6486 -122.0414 342° North 179 206 4,800 -480 Descending Oakland Center
01:24PM 39.7050 -122.0639 343° North 177 204 4,300 -420 Descending Oakland Center
01:25PM 39.7519 -122.0831 343° North 177 204 4,000 -180 Descending Oakland Center
01:26PM 39.7981 -122.1044 340° North 177 204 4,000  Level Oakland Center
01:27PM 39.8436 -122.1242 342° North 175 201 4,000  Level Oakland Center
01:28PM 39.8900 -122.1417 344° North 174 200 4,000  Level Oakland Center
01:29PM 39.9381 -122.1400 North 173 199 4,000  Level Oakland Center
01:30PM 39.9603 -122.1828 304° West 170 196 4,000  Level Oakland Center
01:31PM 39.9664 -122.2350 279° West 167 192 4,000  Level Oakland Center
01:32PM 40.0111 -122.2508 345° North 169 194 4,000 -180 Level Oakland Center
01:33PM 40.0594 -122.2464 North 174 200 3,700 -540 Descending Oakland Center
01:34PM 40.1236 -122.2442 North 191 220 3,000 -360 Descending Oakland Center
01:35PM 40.1725 -122.2539 351° North 187 215 3,000  Level Oakland Center
01:36PM 40.2211 -122.2653 350° North 183 211 3,000  Level Oakland Center
01:37PM 40.2703 -122.2839 344° North 186 214 3,000  Level Oakland Center
01:38PM 40.3189 -122.2969 348° North 183 211 3,000  Level Oakland Center
01:39PM 40.3689 -122.2944 North 180 207 3,000 -480 Level Oakland Center
01:40PM 40.4206 -122.2956 359° North 183 211 2,100 -1,020 Descending Oakland Center
01:41PM 40.4836 -122.2872 North 191 220 1,000 -600 Descending Oakland Center
01:42PM 40.5236 -122.2783 10° North 167 192 900 -120 Descending Oakland Center